sensor_id;sensor_type;location;lat;lon;timestamp;temperature;humidity
18191;DHT22;47004;51.366;12.348;2024-02-23T00:01:25;10.90;99.90
18191;DHT22;47004;51.366;12.348;2024-02-23T00:03:27;11.00;99.90
18191;DHT22;47004;51.366;12.348;2024-02-23T00:05:28;11.00;99.90
18191;DHT22;47004;51.366;12.348;2024-02-23T00:07:30;11.00;99.90
18191;DHT22;47004;51.366;12.348;2024-02-23T00:09:32;11.10;99.90
18191;DHT22;47004;51.366;12.348;2024-02-23T00:11:34;11.20;99.90
18191;DHT22;47004;51.366;12.348;2024-02-23T00:13:40;11.20;99.90
18191;DHT22;47004;51.366;12.348;2024-02-23T00:15:43;11.30;99.90
18191;DHT22;47004;51.366;12.348;2024-02-23T00:17:45;11.30;99.90
18191;DHT22;47004;51.366;12.348;2024-02-23T00:19:47;11.30;99.90
18191;DHT22;47004;51.366;12.348;2024-02-23T00:21:50;11.30;99.90
18191;DHT22;47004;51.366;12.348;2024-02-23T00:23:53;11.40;99.90
18191;DHT22;47004;51.366;12.348;2024-02-23T00:25:55;11.40;99.90
18191;DHT22;47004;51.366;12.348;2024-02-23T00:27:57;11.40;99.90
18191;DHT22;47004;51.366;12.348;2024-02-23T00:29:59;11.40;99.90
18191;DHT22;47004;51.366;12.348;2024-02-23T00:32:03;11.40;99.90
18191;DHT22;47004;51.366;12.348;2024-02-23T00:34:05;11.40;99.90
18191;DHT22;47004;51.366;12.348;2024-02-23T00:36:10;11.40;99.90
18191;DHT22;47004;51.366;12.348;2024-02-23T00:38:12;11.40;99.90
18191;DHT22;47004;51.366;12.348;2024-02-23T00:40:13;11.40;99.90
18191;DHT22;47004;51.366;12.348;2024-02-23T00:42:16;11.30;99.90
18191;DHT22;47004;51.366;12.348;2024-02-23T00:44:18;11.30;99.90
18191;DHT22;47004;51.366;12.348;2024-02-23T00:46:20;11.20;99.90
18191;DHT22;47004;51.366;12.348;2024-02-23T00:48:23;11.30;99.90
18191;DHT22;47004;51.366;12.348;2024-02-23T00:50:25;11.20;99.90
18191;DHT22;47004;51.366;12.348;2024-02-23T00:52:27;11.20;99.90
18191;DHT22;47004;51.366;12.348;2024-02-23T00:54:29;11.10;99.90
18191;DHT22;47004;51.366;12.348;2024-02-23T00:56:31;11.10;99.90
18191;DHT22;47004;51.366;12.348;2024-02-23T00:58:33;11.10;99.90
18191;DHT22;47004;51.366;12.348;2024-02-23T01:00:35;11.10;99.90
18191;DHT22;47004;51.366;12.348;2024-02-23T01:02:37;11.10;99.90
18191;DHT22;47004;51.366;12.348;2024-02-23T01:04:40;11.10;99.90
18191;DHT22;47004;51.366;12.348;2024-02-23T01:06:42;11.10;99.90
18191;DHT22;47004;51.366;12.348;2024-02-23T01:08:43;11.10;99.90
18191;DHT22;47004;51.366;12.348;2024-02-23T01:10:45;11.00;99.90
18191;DHT22;47004;51.366;12.348;2024-02-23T01:12:47;11.10;99.90
18191;DHT22;47004;51.366;12.348;2024-02-23T01:14:49;11.00;99.90
18191;DHT22;47004;51.366;12.348;2024-02-23T01:16:52;11.00;99.90
18191;DHT22;47004;51.366;12.348;2024-02-23T01:18:54;11.00;99.90
18191;DHT22;47004;51.366;12.348;2024-02-23T01:20:57;11.00;99.90
18191;DHT22;47004;51.366;12.348;2024-02-23T01:23:00;11.00;99.90
18191;DHT22;47004;51.366;12.348;2024-02-23T01:25:00;11.00;99.90
18191;DHT22;47004;51.366;12.348;2024-02-23T01:27:03;11.00;99.90
18191;DHT22;47004;51.366;12.348;2024-02-23T01:29:07;11.00;99.90
18191;DHT22;47004;51.366;12.348;2024-02-23T01:31:10;11.00;99.90
18191;DHT22;47004;51.366;12.348;2024-02-23T01:33:12;11.00;99.90
18191;DHT22;47004;51.366;12.348;2024-02-23T01:35:13;10.90;99.90
18191;DHT22;47004;51.366;12.348;2024-02-23T01:37:17;10.90;99.90
18191;DHT22;47004;51.366;12.348;2024-02-23T01:39:19;10.80;99.90
18191;DHT22;47004;51.366;12.348;2024-02-23T01:41:21;10.80;99.90
18191;DHT22;47004;51.366;12.348;2024-02-23T01:43:23;10.70;99.90
18191;DHT22;47004;51.366;12.348;2024-02-23T01:45:25;10.70;99.90
18191;DHT22;47004;51.366;12.348;2024-02-23T01:47:28;10.60;99.90
18191;DHT22;47004;51.366;12.348;2024-02-23T01:49:31;10.60;99.90
18191;DHT22;47004;51.366;12.348;2024-02-23T01:51:34;10.60;99.90
18191;DHT22;47004;51.366;12.348;2024-02-23T01:53:38;10.50;99.90
18191;DHT22;47004;51.366;12.348;2024-02-23T01:55:41;10.50;99.90
18191;DHT22;47004;51.366;12.348;2024-02-23T01:57:43;10.50;99.90
18191;DHT22;47004;51.366;12.348;2024-02-23T01:59:46;10.40;99.90
18191;DHT22;47004;51.366;12.348;2024-02-23T02:01:48;10.40;99.90
18191;DHT22;47004;51.366;12.348;2024-02-23T02:03:50;10.40;99.90
18191;DHT22;47004;51.366;12.348;2024-02-23T02:05:55;10.30;99.90
18191;DHT22;47004;51.366;12.348;2024-02-23T02:07:59;10.30;99.90
18191;DHT22;47004;51.366;12.348;2024-02-23T02:10:04;10.30;99.90
18191;DHT22;47004;51.366;12.348;2024-02-23T02:12:07;10.30;99.90
18191;DHT22;47004;51.366;12.348;2024-02-23T02:14:09;10.20;99.90
18191;DHT22;47004;51.366;12.348;2024-02-23T02:16:11;10.20;99.90
18191;DHT22;47004;51.366;12.348;2024-02-23T02:18:13;10.20;99.90
18191;DHT22;47004;51.366;12.348;2024-02-23T02:20:18;10.20;99.90
18191;DHT22;47004;51.366;12.348;2024-02-23T02:22:25;10.10;99.90
18191;DHT22;47004;51.366;12.348;2024-02-23T02:24:26;10.10;99.90
18191;DHT22;47004;51.366;12.348;2024-02-23T02:26:30;10.10;99.90
18191;DHT22;47004;51.366;12.348;2024-02-23T02:28:32;10.00;99.90
18191;DHT22;47004;51.366;12.348;2024-02-23T02:30:34;10.00;99.90
18191;DHT22;47004;51.366;12.348;2024-02-23T02:32:36;9.90;99.90
18191;DHT22;47004;51.366;12.348;2024-02-23T02:34:38;9.90;99.90
18191;DHT22;47004;51.366;12.348;2024-02-23T02:36:40;9.80;99.90
18191;DHT22;47004;51.366;12.348;2024-02-23T02:38:42;9.80;99.90
18191;DHT22;47004;51.366;12.348;2024-02-23T02:40:44;9.70;99.90
18191;DHT22;47004;51.366;12.348;2024-02-23T02:42:47;9.70;99.90
18191;DHT22;47004;51.366;12.348;2024-02-23T02:44:49;9.60;99.90
18191;DHT22;47004;51.366;12.348;2024-02-23T02:46:51;9.50;99.90
18191;DHT22;47004;51.366;12.348;2024-02-23T02:48:53;9.60;99.90
18191;DHT22;47004;51.366;12.348;2024-02-23T02:50:54;9.60;99.90
18191;DHT22;47004;51.366;12.348;2024-02-23T02:52:56;9.50;99.90
18191;DHT22;47004;51.366;12.348;2024-02-23T02:54:58;9.40;99.90
18191;DHT22;47004;51.366;12.348;2024-02-23T02:57:00;9.40;99.90
18191;DHT22;47004;51.366;12.348;2024-02-23T02:59:03;9.40;99.90
18191;DHT22;47004;51.366;12.348;2024-02-23T03:01:05;9.40;99.90
18191;DHT22;47004;51.366;12.348;2024-02-23T03:03:07;9.30;99.90
18191;DHT22;47004;51.366;12.348;2024-02-23T03:05:09;9.30;99.90
18191;DHT22;47004;51.366;12.348;2024-02-23T03:07:11;9.30;99.90
18191;DHT22;47004;51.366;12.348;2024-02-23T03:09:13;9.30;99.90
18191;DHT22;47004;51.366;12.348;2024-02-23T03:11:15;9.30;99.90
18191;DHT22;47004;51.366;12.348;2024-02-23T03:13:17;9.40;99.90
18191;DHT22;47004;51.366;12.348;2024-02-23T03:15:20;9.30;99.90
18191;DHT22;47004;51.366;12.348;2024-02-23T03:17:23;9.30;99.90
18191;DHT22;47004;51.366;12.348;2024-02-23T03:19:25;9.40;99.90
18191;DHT22;47004;51.366;12.348;2024-02-23T03:21:26;9.30;99.90
18191;DHT22;47004;51.366;12.348;2024-02-23T03:23:28;9.30;99.90
18191;DHT22;47004;51.366;12.348;2024-02-23T03:25:30;9.30;99.90
18191;DHT22;47004;51.366;12.348;2024-02-23T03:27:32;9.20;99.90
18191;DHT22;47004;51.366;12.348;2024-02-23T03:29:34;9.10;99.90
18191;DHT22;47004;51.366;12.348;2024-02-23T03:31:37;9.00;99.90
18191;DHT22;47004;51.366;12.348;2024-02-23T03:33:39;9.00;99.90
18191;DHT22;47004;51.366;12.348;2024-02-23T03:35:41;9.00;99.90
18191;DHT22;47004;51.366;12.348;2024-02-23T03:37:43;8.90;99.90
18191;DHT22;47004;51.366;12.348;2024-02-23T03:39:45;8.80;99.90
18191;DHT22;47004;51.366;12.348;2024-02-23T03:41:46;8.70;99.90
18191;DHT22;47004;51.366;12.348;2024-02-23T03:43:48;8.60;99.90
18191;DHT22;47004;51.366;12.348;2024-02-23T03:45:50;8.50;99.90
18191;DHT22;47004;51.366;12.348;2024-02-23T03:47:53;8.40;99.90
18191;DHT22;47004;51.366;12.348;2024-02-23T03:49:55;8.40;99.90
18191;DHT22;47004;51.366;12.348;2024-02-23T03:51:56;8.30;99.90
18191;DHT22;47004;51.366;12.348;2024-02-23T03:53:58;8.20;99.90
18191;DHT22;47004;51.366;12.348;2024-02-23T03:56:00;8.20;99.90
18191;DHT22;47004;51.366;12.348;2024-02-23T03:58:02;8.10;99.90
18191;DHT22;47004;51.366;12.348;2024-02-23T04:00:05;8.00;99.90
18191;DHT22;47004;51.366;12.348;2024-02-23T04:02:08;8.00;99.90
18191;DHT22;47004;51.366;12.348;2024-02-23T04:04:11;7.90;99.90
18191;DHT22;47004;51.366;12.348;2024-02-23T04:06:13;7.90;99.90
18191;DHT22;47004;51.366;12.348;2024-02-23T04:08:15;7.90;99.90
18191;DHT22;47004;51.366;12.348;2024-02-23T04:10:17;7.90;99.90
18191;DHT22;47004;51.366;12.348;2024-02-23T04:12:20;7.80;99.90
18191;DHT22;47004;51.366;12.348;2024-02-23T04:14:21;7.80;99.90
18191;DHT22;47004;51.366;12.348;2024-02-23T04:16:24;7.70;99.90
18191;DHT22;47004;51.366;12.348;2024-02-23T04:18:26;7.70;99.90
18191;DHT22;47004;51.366;12.348;2024-02-23T04:20:28;7.70;99.90
18191;DHT22;47004;51.366;12.348;2024-02-23T04:22:30;7.60;99.90
18191;DHT22;47004;51.366;12.348;2024-02-23T04:24:31;7.60;99.90
18191;DHT22;47004;51.366;12.348;2024-02-23T04:26:35;7.60;99.90
18191;DHT22;47004;51.366;12.348;2024-02-23T04:28:38;7.50;99.90
18191;DHT22;47004;51.366;12.348;2024-02-23T04:30:40;7.50;99.90
18191;DHT22;47004;51.366;12.348;2024-02-23T04:32:41;7.50;99.90
18191;DHT22;47004;51.366;12.348;2024-02-23T04:34:47;7.40;99.90
18191;DHT22;47004;51.366;12.348;2024-02-23T04:36:50;7.40;99.90
18191;DHT22;47004;51.366;12.348;2024-02-23T04:38:52;7.40;99.90
18191;DHT22;47004;51.366;12.348;2024-02-23T04:40:53;7.30;99.90
18191;DHT22;47004;51.366;12.348;2024-02-23T04:42:55;7.30;99.90
18191;DHT22;47004;51.366;12.348;2024-02-23T04:44:57;7.30;99.90
18191;DHT22;47004;51.366;12.348;2024-02-23T04:46:58;7.20;99.90
18191;DHT22;47004;51.366;12.348;2024-02-23T04:49:03;7.20;99.90
18191;DHT22;47004;51.366;12.348;2024-02-23T04:51:05;7.20;99.90
18191;DHT22;47004;51.366;12.348;2024-02-23T04:53:09;7.20;99.90
18191;DHT22;47004;51.366;12.348;2024-02-23T04:55:11;7.10;99.90
18191;DHT22;47004;51.366;12.348;2024-02-23T04:57:13;7.10;99.90
18191;DHT22;47004;51.366;12.348;2024-02-23T04:59:15;7.00;99.90
18191;DHT22;47004;51.366;12.348;2024-02-23T05:01:17;7.00;99.90
18191;DHT22;47004;51.366;12.348;2024-02-23T05:03:20;6.90;99.90
18191;DHT22;47004;51.366;12.348;2024-02-23T05:05:22;6.90;99.90
18191;DHT22;47004;51.366;12.348;2024-02-23T05:07:23;6.90;99.90
18191;DHT22;47004;51.366;12.348;2024-02-23T05:09:28;6.80;99.90
18191;DHT22;47004;51.366;12.348;2024-02-23T05:11:30;6.80;99.90
18191;DHT22;47004;51.366;12.348;2024-02-23T05:13:32;6.80;99.90
18191;DHT22;47004;51.366;12.348;2024-02-23T05:15:34;6.80;99.90
18191;DHT22;47004;51.366;12.348;2024-02-23T05:17:36;6.80;99.90
18191;DHT22;47004;51.366;12.348;2024-02-23T05:19:38;6.80;99.90
18191;DHT22;47004;51.366;12.348;2024-02-23T05:21:40;6.80;99.90
18191;DHT22;47004;51.366;12.348;2024-02-23T05:23:42;6.90;99.90
18191;DHT22;47004;51.366;12.348;2024-02-23T05:25:48;6.90;99.90
18191;DHT22;47004;51.366;12.348;2024-02-23T05:27:50;6.90;99.90
18191;DHT22;47004;51.366;12.348;2024-02-23T05:29:52;6.90;99.90
18191;DHT22;47004;51.366;12.348;2024-02-23T05:31:54;6.90;99.90
18191;DHT22;47004;51.366;12.348;2024-02-23T05:33:56;6.90;99.90
18191;DHT22;47004;51.366;12.348;2024-02-23T05:35:58;6.90;99.90
18191;DHT22;47004;51.366;12.348;2024-02-23T05:38:00;7.00;99.90
18191;DHT22;47004;51.366;12.348;2024-02-23T05:40:03;7.00;99.90
18191;DHT22;47004;51.366;12.348;2024-02-23T05:42:06;7.00;99.90
18191;DHT22;47004;51.366;12.348;2024-02-23T05:44:08;7.00;99.90
18191;DHT22;47004;51.366;12.348;2024-02-23T05:46:10;7.00;99.90
18191;DHT22;47004;51.366;12.348;2024-02-23T05:48:12;7.00;99.90
18191;DHT22;47004;51.366;12.348;2024-02-23T05:50:14;6.90;99.90
18191;DHT22;47004;51.366;12.348;2024-02-23T05:52:16;6.90;99.90
18191;DHT22;47004;51.366;12.348;2024-02-23T05:54:18;6.90;99.90
18191;DHT22;47004;51.366;12.348;2024-02-23T05:56:19;6.90;99.90
18191;DHT22;47004;51.366;12.348;2024-02-23T05:58:22;6.90;99.90
18191;DHT22;47004;51.366;12.348;2024-02-23T06:00:24;6.80;99.90
18191;DHT22;47004;51.366;12.348;2024-02-23T06:02:25;6.90;99.90
18191;DHT22;47004;51.366;12.348;2024-02-23T06:04:27;6.80;99.90
18191;DHT22;47004;51.366;12.348;2024-02-23T06:06:29;6.80;99.90
18191;DHT22;47004;51.366;12.348;2024-02-23T06:08:32;6.70;99.90
18191;DHT22;47004;51.366;12.348;2024-02-23T06:10:33;6.70;99.90
18191;DHT22;47004;51.366;12.348;2024-02-23T06:12:35;6.70;99.90
18191;DHT22;47004;51.366;12.348;2024-02-23T06:14:40;6.70;99.90
18191;DHT22;47004;51.366;12.348;2024-02-23T06:16:44;6.70;99.90
18191;DHT22;47004;51.366;12.348;2024-02-23T06:18:46;6.60;99.90
18191;DHT22;47004;51.366;12.348;2024-02-23T06:20:49;6.60;99.90
18191;DHT22;47004;51.366;12.348;2024-02-23T06:22:51;6.60;99.90
18191;DHT22;47004;51.366;12.348;2024-02-23T06:24:53;6.60;99.90
18191;DHT22;47004;51.366;12.348;2024-02-23T06:26:55;6.60;99.90
18191;DHT22;47004;51.366;12.348;2024-02-23T06:28:58;6.60;99.90
18191;DHT22;47004;51.366;12.348;2024-02-23T06:31:01;6.60;99.90
18191;DHT22;47004;51.366;12.348;2024-02-23T06:33:07;6.50;99.90
18191;DHT22;47004;51.366;12.348;2024-02-23T06:35:09;6.50;99.90
18191;DHT22;47004;51.366;12.348;2024-02-23T06:37:12;6.50;99.90
18191;DHT22;47004;51.366;12.348;2024-02-23T06:39:14;6.50;99.90
18191;DHT22;47004;51.366;12.348;2024-02-23T06:41:18;6.50;99.90
18191;DHT22;47004;51.366;12.348;2024-02-23T06:43:22;6.50;99.90
18191;DHT22;47004;51.366;12.348;2024-02-23T06:45:24;6.50;99.90
18191;DHT22;47004;51.366;12.348;2024-02-23T06:47:27;6.50;99.90
18191;DHT22;47004;51.366;12.348;2024-02-23T06:49:29;6.40;99.90
18191;DHT22;47004;51.366;12.348;2024-02-23T06:51:31;6.40;99.90
18191;DHT22;47004;51.366;12.348;2024-02-23T06:53:33;6.40;99.90
18191;DHT22;47004;51.366;12.348;2024-02-23T06:55:35;6.40;99.90
18191;DHT22;47004;51.366;12.348;2024-02-23T06:57:37;6.40;99.90
18191;DHT22;47004;51.366;12.348;2024-02-23T06:59:39;6.50;99.90
18191;DHT22;47004;51.366;12.348;2024-02-23T07:01:48;6.40;99.90
18191;DHT22;47004;51.366;12.348;2024-02-23T07:03:52;6.40;99.90
18191;DHT22;47004;51.366;12.348;2024-02-23T07:05:54;6.40;99.90
18191;DHT22;47004;51.366;12.348;2024-02-23T07:07:56;6.40;99.90
18191;DHT22;47004;51.366;12.348;2024-02-23T07:09:58;6.40;99.90
18191;DHT22;47004;51.366;12.348;2024-02-23T07:11:59;6.40;99.90
18191;DHT22;47004;51.366;12.348;2024-02-23T07:14:01;6.40;99.90
18191;DHT22;47004;51.366;12.348;2024-02-23T07:16:04;6.40;99.90
18191;DHT22;47004;51.366;12.348;2024-02-23T07:18:06;6.50;99.90
18191;DHT22;47004;51.366;12.348;2024-02-23T07:20:11;6.40;99.90
18191;DHT22;47004;51.366;12.348;2024-02-23T07:22:13;6.50;99.90
18191;DHT22;47004;51.366;12.348;2024-02-23T07:24:19;6.50;99.90
18191;DHT22;47004;51.366;12.348;2024-02-23T07:26:21;6.50;99.90
18191;DHT22;47004;51.366;12.348;2024-02-23T07:28:22;6.50;99.90
18191;DHT22;47004;51.366;12.348;2024-02-23T07:30:24;6.50;99.90
18191;DHT22;47004;51.366;12.348;2024-02-23T07:32:26;6.50;99.90
18191;DHT22;47004;51.366;12.348;2024-02-23T07:34:31;6.50;99.90
18191;DHT22;47004;51.366;12.348;2024-02-23T07:36:34;6.60;99.90
18191;DHT22;47004;51.366;12.348;2024-02-23T07:38:36;6.70;99.90
18191;DHT22;47004;51.366;12.348;2024-02-23T07:40:38;6.60;99.90
18191;DHT22;47004;51.366;12.348;2024-02-23T07:42:40;6.60;99.90
18191;DHT22;47004;51.366;12.348;2024-02-23T07:44:42;6.60;99.90
18191;DHT22;47004;51.366;12.348;2024-02-23T07:46:43;6.60;99.90
18191;DHT22;47004;51.366;12.348;2024-02-23T07:48:45;6.60;99.90
18191;DHT22;47004;51.366;12.348;2024-02-23T07:50:48;6.60;99.90
18191;DHT22;47004;51.366;12.348;2024-02-23T07:52:51;6.60;99.90
18191;DHT22;47004;51.366;12.348;2024-02-23T07:54:56;6.70;99.90
18191;DHT22;47004;51.366;12.348;2024-02-23T07:56:58;6.70;99.90
18191;DHT22;47004;51.366;12.348;2024-02-23T07:59:00;6.70;99.90
18191;DHT22;47004;51.366;12.348;2024-02-23T08:01:03;6.70;99.90
18191;DHT22;47004;51.366;12.348;2024-02-23T08:03:06;6.70;99.90
18191;DHT22;47004;51.366;12.348;2024-02-23T08:05:09;6.70;99.90
18191;DHT22;47004;51.366;12.348;2024-02-23T08:07:11;6.70;99.90
18191;DHT22;47004;51.366;12.348;2024-02-23T08:09:14;6.70;99.90
18191;DHT22;47004;51.366;12.348;2024-02-23T08:11:19;6.70;99.90
18191;DHT22;47004;51.366;12.348;2024-02-23T08:13:21;6.80;99.90
18191;DHT22;47004;51.366;12.348;2024-02-23T08:15:23;6.80;99.90
18191;DHT22;47004;51.366;12.348;2024-02-23T08:17:25;6.80;99.90
18191;DHT22;47004;51.366;12.348;2024-02-23T08:19:27;6.90;99.90
18191;DHT22;47004;51.366;12.348;2024-02-23T08:21:28;6.90;99.90
18191;DHT22;47004;51.366;12.348;2024-02-23T08:23:30;6.90;99.90
18191;DHT22;47004;51.366;12.348;2024-02-23T08:25:33;6.90;99.90
18191;DHT22;47004;51.366;12.348;2024-02-23T08:27:35;6.90;99.90
18191;DHT22;47004;51.366;12.348;2024-02-23T08:29:38;6.90;99.90
18191;DHT22;47004;51.366;12.348;2024-02-23T08:31:39;7.00;99.90
18191;DHT22;47004;51.366;12.348;2024-02-23T08:33:41;7.00;99.90
18191;DHT22;47004;51.366;12.348;2024-02-23T08:35:43;7.00;99.90
18191;DHT22;47004;51.366;12.348;2024-02-23T08:37:45;7.10;99.90
18191;DHT22;47004;51.366;12.348;2024-02-23T08:39:47;7.10;99.90
18191;DHT22;47004;51.366;12.348;2024-02-23T08:41:50;7.10;99.90
18191;DHT22;47004;51.366;12.348;2024-02-23T08:43:52;7.20;99.90
18191;DHT22;47004;51.366;12.348;2024-02-23T08:45:55;7.20;99.90
18191;DHT22;47004;51.366;12.348;2024-02-23T08:47:58;7.20;99.90
18191;DHT22;47004;51.366;12.348;2024-02-23T08:50:01;7.20;99.90
18191;DHT22;47004;51.366;12.348;2024-02-23T08:52:02;7.30;99.90
18191;DHT22;47004;51.366;12.348;2024-02-23T08:54:04;7.30;99.90
18191;DHT22;47004;51.366;12.348;2024-02-23T08:56:08;7.40;99.90
18191;DHT22;47004;51.366;12.348;2024-02-23T08:58:12;7.40;99.90
18191;DHT22;47004;51.366;12.348;2024-02-23T09:00:14;7.40;99.90
18191;DHT22;47004;51.366;12.348;2024-02-23T09:02:16;7.40;99.90
18191;DHT22;47004;51.366;12.348;2024-02-23T09:04:19;7.50;99.90
18191;DHT22;47004;51.366;12.348;2024-02-23T09:06:21;7.60;99.90
18191;DHT22;47004;51.366;12.348;2024-02-23T09:08:23;7.60;99.90
18191;DHT22;47004;51.366;12.348;2024-02-23T09:10:25;7.50;99.90
18191;DHT22;47004;51.366;12.348;2024-02-23T09:12:27;7.70;99.90
18191;DHT22;47004;51.366;12.348;2024-02-23T09:14:30;7.60;99.90
18191;DHT22;47004;51.366;12.348;2024-02-23T09:16:32;7.70;99.90
18191;DHT22;47004;51.366;12.348;2024-02-23T09:18:34;7.70;99.90
18191;DHT22;47004;51.366;12.348;2024-02-23T09:20:36;7.70;99.90
18191;DHT22;47004;51.366;12.348;2024-02-23T09:22:38;7.80;99.90
18191;DHT22;47004;51.366;12.348;2024-02-23T09:24:40;7.80;99.90
18191;DHT22;47004;51.366;12.348;2024-02-23T09:26:45;7.80;99.90
18191;DHT22;47004;51.366;12.348;2024-02-23T09:28:47;7.80;99.90
18191;DHT22;47004;51.366;12.348;2024-02-23T09:30:51;7.80;99.90
18191;DHT22;47004;51.366;12.348;2024-02-23T09:32:54;7.90;99.90
18191;DHT22;47004;51.366;12.348;2024-02-23T09:34:59;7.90;99.90
18191;DHT22;47004;51.366;12.348;2024-02-23T09:37:01;8.00;99.90
18191;DHT22;47004;51.366;12.348;2024-02-23T09:39:03;7.90;99.90
18191;DHT22;47004;51.366;12.348;2024-02-23T09:41:15;8.00;99.90
18191;DHT22;47004;51.366;12.348;2024-02-23T09:43:21;8.10;99.90
18191;DHT22;47004;51.366;12.348;2024-02-23T09:45:24;8.10;99.90
18191;DHT22;47004;51.366;12.348;2024-02-23T09:47:29;8.20;99.90
18191;DHT22;47004;51.366;12.348;2024-02-23T09:49:31;8.20;99.90
18191;DHT22;47004;51.366;12.348;2024-02-23T09:51:32;8.30;99.90
18191;DHT22;47004;51.366;12.348;2024-02-23T09:53:37;8.20;99.90
18191;DHT22;47004;51.366;12.348;2024-02-23T09:55:39;8.20;99.90
18191;DHT22;47004;51.366;12.348;2024-02-23T09:57:42;8.30;99.90
18191;DHT22;47004;51.366;12.348;2024-02-23T09:59:46;8.30;99.90
18191;DHT22;47004;51.366;12.348;2024-02-23T10:01:50;8.30;99.90
18191;DHT22;47004;51.366;12.348;2024-02-23T10:03:56;8.40;99.90
18191;DHT22;47004;51.366;12.348;2024-02-23T10:05:59;8.40;99.90
18191;DHT22;47004;51.366;12.348;2024-02-23T10:08:01;8.40;99.90
18191;DHT22;47004;51.366;12.348;2024-02-23T10:10:07;8.40;99.90
18191;DHT22;47004;51.366;12.348;2024-02-23T10:12:09;8.50;99.90
18191;DHT22;47004;51.366;12.348;2024-02-23T10:14:11;8.50;99.90
18191;DHT22;47004;51.366;12.348;2024-02-23T10:16:13;8.60;99.90
18191;DHT22;47004;51.366;12.348;2024-02-23T10:18:15;8.60;99.90
18191;DHT22;47004;51.366;12.348;2024-02-23T10:20:18;8.60;99.90
18191;DHT22;47004;51.366;12.348;2024-02-23T10:22:19;8.70;99.90
18191;DHT22;47004;51.366;12.348;2024-02-23T10:24:23;8.70;99.90
18191;DHT22;47004;51.366;12.348;2024-02-23T10:26:28;8.60;99.90
18191;DHT22;47004;51.366;12.348;2024-02-23T10:28:30;8.60;99.90
18191;DHT22;47004;51.366;12.348;2024-02-23T10:30:32;8.70;99.90
18191;DHT22;47004;51.366;12.348;2024-02-23T10:32:35;8.70;99.90
18191;DHT22;47004;51.366;12.348;2024-02-23T10:34:37;8.80;99.90
18191;DHT22;47004;51.366;12.348;2024-02-23T10:36:42;8.80;99.90
18191;DHT22;47004;51.366;12.348;2024-02-23T10:38:45;8.90;99.90
18191;DHT22;47004;51.366;12.348;2024-02-23T10:40:47;8.90;99.90
18191;DHT22;47004;51.366;12.348;2024-02-23T10:42:51;8.90;99.90
18191;DHT22;47004;51.366;12.348;2024-02-23T10:44:58;8.90;99.90
18191;DHT22;47004;51.366;12.348;2024-02-23T10:47:02;8.90;99.90
18191;DHT22;47004;51.366;12.348;2024-02-23T10:49:06;8.90;99.90
18191;DHT22;47004;51.366;12.348;2024-02-23T10:51:08;9.00;99.90
18191;DHT22;47004;51.366;12.348;2024-02-23T10:53:14;9.00;99.90
18191;DHT22;47004;51.366;12.348;2024-02-23T10:55:19;9.00;99.90
18191;DHT22;47004;51.366;12.348;2024-02-23T10:57:21;9.00;99.90
18191;DHT22;47004;51.366;12.348;2024-02-23T10:59:24;8.90;99.90
18191;DHT22;47004;51.366;12.348;2024-02-23T11:01:26;8.90;99.90
18191;DHT22;47004;51.366;12.348;2024-02-23T11:03:29;8.90;99.90
18191;DHT22;47004;51.366;12.348;2024-02-23T11:05:33;8.90;99.90
18191;DHT22;47004;51.366;12.348;2024-02-23T11:07:38;8.90;99.90
18191;DHT22;47004;51.366;12.348;2024-02-23T11:09:41;8.90;99.90
18191;DHT22;47004;51.366;12.348;2024-02-23T11:11:54;8.90;99.90
18191;DHT22;47004;51.366;12.348;2024-02-23T11:13:56;9.00;99.90
18191;DHT22;47004;51.366;12.348;2024-02-23T11:16:02;9.00;99.90
18191;DHT22;47004;51.366;12.348;2024-02-23T11:18:05;9.00;99.90
18191;DHT22;47004;51.366;12.348;2024-02-23T11:20:22;9.00;99.90
18191;DHT22;47004;51.366;12.348;2024-02-23T11:22:26;9.00;99.90
18191;DHT22;47004;51.366;12.348;2024-02-23T11:24:30;9.00;99.90
18191;DHT22;47004;51.366;12.348;2024-02-23T11:26:37;9.00;99.90
18191;DHT22;47004;51.366;12.348;2024-02-23T11:28:42;9.00;99.90
18191;DHT22;47004;51.366;12.348;2024-02-23T11:30:45;9.10;99.90
18191;DHT22;47004;51.366;12.348;2024-02-23T11:32:49;9.10;99.90
18191;DHT22;47004;51.366;12.348;2024-02-23T11:34:55;9.10;99.90
18191;DHT22;47004;51.366;12.348;2024-02-23T11:36:57;9.10;99.90
18191;DHT22;47004;51.366;12.348;2024-02-23T11:39:00;9.10;99.90
18191;DHT22;47004;51.366;12.348;2024-02-23T11:41:02;9.10;99.90
18191;DHT22;47004;51.366;12.348;2024-02-23T11:43:07;9.10;99.90
18191;DHT22;47004;51.366;12.348;2024-02-23T11:45:10;9.10;99.90
18191;DHT22;47004;51.366;12.348;2024-02-23T11:47:12;9.20;99.90
18191;DHT22;47004;51.366;12.348;2024-02-23T11:49:14;9.20;99.90
18191;DHT22;47004;51.366;12.348;2024-02-23T11:51:16;9.20;99.90
18191;DHT22;47004;51.366;12.348;2024-02-23T11:53:19;9.20;99.90
18191;DHT22;47004;51.366;12.348;2024-02-23T11:55:25;9.20;99.90
18191;DHT22;47004;51.366;12.348;2024-02-23T11:57:30;9.30;99.90
18191;DHT22;47004;51.366;12.348;2024-02-23T11:59:33;9.40;99.90
18191;DHT22;47004;51.366;12.348;2024-02-23T12:01:38;9.30;99.90
18191;DHT22;47004;51.366;12.348;2024-02-23T12:03:40;9.30;99.90
18191;DHT22;47004;51.366;12.348;2024-02-23T12:05:44;9.30;99.90
18191;DHT22;47004;51.366;12.348;2024-02-23T12:07:46;9.30;99.90
18191;DHT22;47004;51.366;12.348;2024-02-23T12:09:48;9.30;99.90
18191;DHT22;47004;51.366;12.348;2024-02-23T12:11:53;9.30;99.90
18191;DHT22;47004;51.366;12.348;2024-02-23T12:13:55;9.30;99.90
18191;DHT22;47004;51.366;12.348;2024-02-23T12:15:59;9.30;99.90
18191;DHT22;47004;51.366;12.348;2024-02-23T12:18:00;9.20;99.90
18191;DHT22;47004;51.366;12.348;2024-02-23T12:20:02;9.30;99.90
18191;DHT22;47004;51.366;12.348;2024-02-23T12:22:05;9.30;99.90
18191;DHT22;47004;51.366;12.348;2024-02-23T12:24:08;9.30;99.90
18191;DHT22;47004;51.366;12.348;2024-02-23T12:26:10;9.30;99.90
18191;DHT22;47004;51.366;12.348;2024-02-23T12:28:17;9.30;99.90
18191;DHT22;47004;51.366;12.348;2024-02-23T12:30:19;9.30;99.90
18191;DHT22;47004;51.366;12.348;2024-02-23T12:32:23;9.30;99.90
18191;DHT22;47004;51.366;12.348;2024-02-23T12:34:25;9.40;99.90
18191;DHT22;47004;51.366;12.348;2024-02-23T12:36:26;9.30;99.90
18191;DHT22;47004;51.366;12.348;2024-02-23T12:38:28;9.30;99.90
18191;DHT22;47004;51.366;12.348;2024-02-23T12:40:30;9.30;99.90
18191;DHT22;47004;51.366;12.348;2024-02-23T12:42:32;9.30;99.90
18191;DHT22;47004;51.366;12.348;2024-02-23T12:44:34;9.30;99.90
18191;DHT22;47004;51.366;12.348;2024-02-23T12:46:36;9.30;99.90
18191;DHT22;47004;51.366;12.348;2024-02-23T12:48:39;9.30;99.90
18191;DHT22;47004;51.366;12.348;2024-02-23T12:50:43;9.30;99.90
18191;DHT22;47004;51.366;12.348;2024-02-23T12:52:45;9.30;99.90